Latest Weather Observations for Portland Airport

IDV60801

Issued at 7:32 pm EDT Tuesday 17 January 2017 (issued every 30 minutes, with the page automatically refreshed every 10 minutes)

About weather observations | Map of weather stations | Latest weather observations for VIC | Other Formats
Station Details ID: 090171 Name: CASHMORE AIRPORT Lat: -38.31 Lon: 141.47 Height: 80.9 m
Data from the previous 72 hours. | See also: Recent months at Portland Airport
Date/Time
EDT
Temp
°C
App
Temp
°C
Dew
Point
°C
Rel
Hum
%
Delta-T
°C
Wind Press
QNH
hPa
Press
MSL
hPa
Rain since
9am
mm
Dir  Spd
km/h
Gust
km/h
Spd
kts
Gust
kts
17/07:30pm 17.3 15.7 15.1 87 1.3 SW 17 32 9 17 1009.7 1009.6 0.0
17/07:00pm 17.7 15.2 15.1 85 1.5 SSW 22 30 12 16 1008.9 1008.8 0.0
17/06:47pm 18.1 15.7 15.4 84 1.6 SW 22 35 12 19 1009.0 1008.9 0.0
17/06:30pm 18.8 17.8 15.5 81 2.0 SSW 15 24 8 13 1008.2 1008.1 0.0
17/06:00pm 21.3 20.3 14.7 66 3.9 SW 13 20 7 11 1007.7 1007.6 0.0
17/05:30pm 20.6 21.3 15.6 73 3.0 SW 6 11 3 6 1007.0 1006.8 0.0
17/05:00pm 20.4 20.7 16.0 76 2.6 S 9 13 5 7 1006.8 1006.6 0.0
17/04:30pm 20.5 21.1 15.9 75 2.8 S 7 11 4 6 1006.9 1006.7 0.0
17/04:00pm 20.3 20.3 15.3 73 3.0 S 9 15 5 8 1007.2 1007.0 0.0
17/03:30pm 21.9 21.7 15.7 68 3.7 SSW 11 15 6 8 1007.5 1007.4 0.0
17/03:00pm 23.0 22.2 15.1 61 4.7 WSW 13 17 7 9 1007.7 1007.6 0.0
17/02:30pm 22.8 21.8 14.6 60 4.9 WSW 13 15 7 8 1007.7 1007.6 0.0
17/02:00pm 22.8 21.4 13.3 55 5.5 WSW 13 19 7 10 1007.9 1007.8 0.0
17/01:30pm 22.0 20.7 12.5 54 5.4 SW 11 17 6 9 1007.8 1007.7 0.0
17/01:00pm 22.5 19.8 11.6 50 6.1 W 17 22 9 12 1007.9 1007.8 0.0
17/12:30pm 23.9 21.5 12.8 49 6.4 W 17 22 9 12 1008.0 1007.9 0.0
17/12:00pm 25.5 24.3 12.7 45 7.4 NW 11 17 6 9 1007.5 1007.4 0.0
17/11:30am 24.4 22.5 11.7 45 7.2 NNW 13 19 7 10 1007.6 1007.5 0.0
17/11:00am 23.3 21.6 12.6 51 6.2 NW 13 20 7 11 1007.8 1007.7 0.0
17/10:30am 21.1 19.2 13.0 60 4.6 WNW 15 20 8 11 1008.2 1008.1 0.0
17/10:14am 20.5 17.9 13.7 65 3.9 W 20 28 11 15 1008.8 1008.7 0.0
17/10:00am 21.3 19.1 13.2 60 4.7 W 17 22 9 12 1008.6 1008.5 0.0
17/09:55am 23.0 21.4 11.7 49 6.4 W 11 19 6 10 1008.5 1008.4 0.0
17/09:30am 22.6 21.4 11.7 50 6.1 NW 9 11 5 6 1008.2 1008.1 0.0
17/09:00am 22.7 20.1 9.5 43 7.2 WNW 13 20 7 11 1008.8 1008.7 0.2
17/08:30am 20.1 18.8 11.1 56 4.9 NW 9 15 5 8 1008.4 1008.3 0.2
17/08:00am 19.6 18.3 11.1 58 4.7 NNW 9 13 5 7 1008.0 1007.9 0.2
17/07:30am 17.5 16.4 11.8 69 3.1 N 9 13 5 7 1007.7 1007.6 0.2
17/07:00am 16.8 15.2 11.5 71 2.9 N 11 15 6 8 1007.5 1007.4 0.2
17/06:30am 16.3 14.7 11.5 73 2.6 N 11 13 6 7 1007.5 1007.4 0.2
17/06:00am 16.0 13.4 10.7 71 2.8 NNE 15 17 8 9 1007.3 1007.1 0.2
17/05:30am 16.5 15.1 11.0 70 3.0 NNE 9 13 5 7 1007.6 1007.5 0.2
17/05:00am 16.3 15.2 10.6 69 3.0 NNW 7 11 4 6 1007.6 1007.5 0.2
17/04:30am 16.4 15.0 10.9 70 3.0 NW 9 13 5 7 1007.7 1007.6 0.2
17/04:00am 17.1 15.4 11.2 68 3.2 N 11 15 6 8 1007.8 1007.7 0.2
17/03:30am 15.8 14.9 10.8 72 2.7 NW 6 7 3 4 1008.0 1007.9 0.2
17/03:00am 16.2 14.9 11.2 72 2.7 NNW 9 13 5 7 1008.3 1008.2 0.2
17/02:30am 16.8 15.2 11.5 71 2.9 N 11 13 6 7 1008.6 1008.5 0.2
17/02:00am 16.4 14.7 11.1 71 2.9 N 11 13 6 7 1008.7 1008.6 0.2
17/01:30am 17.3 15.8 11.8 70 3.0 N 11 15 6 8 1008.9 1008.8 0.2
17/01:00am 17.0 16.3 11.5 70 3.0 NNW 6 9 3 5 1009.1 1009.0 0.2
17/12:30am 17.2 16.6 11.7 70 3.0 NW 6 7 3 4 1009.3 1009.2 0.2
17/12:00am 17.9 18.5 11.9 68 3.3 CALM 0 0 0 0 1009.5 1009.4 0.2
 
Date/Time
EDT
Temp
°C
App
Temp
°C
Dew
Point
°C
Rel
Hum
%
Delta-T
°C
Wind Press
QNH
hPa
Press
MSL
hPa
Rain since
9am
mm
Dir  Spd
km/h
Gust
km/h
Spd
kts
Gust
kts
16/11:30pm 18.2 18.7 11.7 66 3.6 CALM 0 0 0 0 1009.8 1009.7 0.2
16/11:00pm 18.9 17.6 11.2 61 4.2 NW 9 11 5 6 1009.9 1009.8 0.2
16/10:30pm 18.7 19.1 11.3 62 4.1 CALM 0 0 0 0 1010.0 1009.9 0.2
16/10:00pm 19.9 17.9 11.4 58 4.7 WNW 13 19 7 10 1010.0 1009.9 0.2
16/09:30pm 20.3 17.4 11.0 55 5.1 W 17 22 9 12 1010.2 1010.1 0.2
16/09:00pm 20.4 17.0 10.5 53 5.4 W 19 24 10 13 1009.9 1009.8 0.2
16/08:30pm 21.7 18.4 9.6 46 6.5 WNW 17 24 9 13 1009.8 1009.7 0.2
16/08:00pm 23.3 18.7 9.7 42 7.4 W 24 32 13 17 1009.8 1009.7 0.2
16/07:30pm 25.3 21.5 9.2 36 8.8 W 19 26 10 14 1009.7 1009.6 0.2
16/07:00pm 25.7 21.5 8.2 33 9.4 WNW 20 30 11 16 1009.2 1009.1 0.2
16/06:30pm 26.0 22.4 9.8 36 9.0 W 19 26 10 14 1009.6 1009.5 0.2
16/06:00pm 26.7 23.0 11.6 39 8.7 W 22 32 12 17 1010.0 1009.9 0.2
16/05:30pm 27.0 23.8 11.9 39 8.7 W 20 26 11 14 1010.2 1010.1 0.2
16/05:00pm 26.7 23.9 12.7 42 8.2 WSW 19 24 10 13 1010.5 1010.4 0.2
16/04:30pm 25.7 23.8 14.2 49 6.8 WSW 17 22 9 12 1010.9 1010.8 0.2
16/04:00pm 26.0 24.0 13.8 47 7.2 WSW 17 20 9 11 1011.2 1011.1 0.2
16/03:30pm 27.2 25.7 14.2 44 7.8 WSW 15 22 8 12 1011.3 1011.2 0.2
16/03:00pm 26.5 25.8 14.3 47 7.3 WSW 11 17 6 9 1011.7 1011.6 0.2
16/02:30pm 25.5 24.8 14.3 50 6.7 SW 11 19 6 10 1012.2 1012.1 0.2
16/02:00pm 26.2 24.3 11.9 41 8.2 W 13 19 7 10 1012.8 1012.6 0.2
16/01:30pm 25.3 24.1 14.1 50 6.6 SW 13 19 7 10 1013.1 1012.9 0.2
16/01:00pm 25.3 23.8 13.2 47 7.1 W 13 17 7 9 1013.3 1013.1 0.2
16/12:30pm 24.7 22.9 12.0 45 7.3 W 13 22 7 12 1013.5 1013.3 0.2
16/12:00pm 23.2 22.7 12.2 50 6.3 NNW 6 13 3 7 1013.7 1013.5 0.2
16/11:30am 21.7 21.8 12.8 57 5.1 NW 4 11 2 6 1014.0 1013.8 0.2
16/11:00am 20.3 19.9 12.5 61 4.4 N 6 11 3 6 1014.6 1014.4 0.2
16/10:30am 19.1 18.1 12.4 65 3.8 NNE 9 15 5 8 1014.9 1014.7 0.0
16/10:00am 17.4 15.4 11.4 68 3.3 NNE 13 17 7 9 1015.2 1015.0 0.0
16/09:30am 16.5 14.6 11.9 74 2.5 NE 13 20 7 11 1015.4 1015.2 0.0
16/09:00am 15.1 14.0 13.0 87 1.2 NE 11 17 6 9 1015.5 1015.3 0.0
16/08:30am 13.2 11.7 11.8 91 0.8 NNE 11 15 6 8 1015.6 1015.4 0.0
16/08:00am 11.2 9.2 10.1 93 0.6 NNE 11 13 6 7 1015.4 1015.2 0.0
16/07:30am 9.7 7.7 8.6 93 0.5 NNE 9 13 5 7 1015.3 1015.1 0.0
16/07:19am 9.5 7.4 8.4 93 0.5 NNE 9 11 5 6 1015.3 1015.1 0.0
16/07:00am 7.5 5.5 6.3 92 0.5 N 6 7 3 4 1015.3 1015.1 0.0
16/06:56am 7.7 5.8 6.5 92 0.6 N 6 7 3 4 1015.4 1015.2 0.0
16/06:30am 8.4 6.4 7.2 92 0.6 N 7 11 4 6 1015.1 1014.9 0.0
16/06:00am 8.6 6.7 7.4 92 0.6 N 7 9 4 5 1015.2 1015.0 0.0
16/05:30am 8.7 6.0 7.5 92 0.6 N 11 13 6 7 1015.3 1015.1 0.0
16/05:00am 8.0 5.1 6.6 91 0.6 N 11 13 6 7 1015.3 1015.1 0.0
16/04:30am 7.5 5.3 6.1 91 0.6 N 7 11 4 6 1015.2 1015.0 0.0
16/04:00am 7.4 5.1 5.9 90 0.7 NNE 7 11 4 6 1015.0 1014.8 0.0
16/03:30am 6.9 5.9 5.4 90 0.7 CALM 0 0 0 0 1015.1 1014.9 0.0
16/03:00am 6.8 5.7 5.3 90 0.7 CALM 0 0 0 0 1015.5 1015.3 0.0
16/02:30am 7.4 6.5 5.9 90 0.7 CALM 0 0 0 0 1015.7 1015.5 0.0
16/02:00am 7.1 6.1 5.4 89 0.8 CALM 0 0 0 0 1016.2 1016.0 0.0
16/01:30am 8.1 7.2 6.2 88 0.9 CALM 0 0 0 0 1016.4 1016.2 0.0
16/01:00am 9.2 8.6 7.5 89 0.8 CALM 0 0 0 0 1016.7 1016.5 0.0
16/12:30am 8.3 7.5 6.3 87 0.9 CALM 0 0 0 0 1016.9 1016.7 0.0
16/12:00am 9.3 8.6 7.1 86 1.0 CALM 0 0 0 0 1017.3 1017.1 0.0
 
Date/Time
EDT
Temp
°C
App
Temp
°C
Dew
Point
°C
Rel
Hum
%
Delta-T
°C
Wind Press
QNH
hPa
Press
MSL
hPa
Rain since
9am
mm
Dir  Spd
km/h
Gust
km/h
Spd
kts
Gust
kts
15/11:30pm 9.5 8.8 7.1 85 1.1 CALM 0 0 0 0 1017.5 1017.3 0.0
15/11:00pm 10.6 10.1 7.8 83 1.4 CALM 0 0 0 0 1017.7 1017.5 0.0
15/10:30pm 10.9 9.6 7.8 81 1.5 SW 4 6 2 3 1017.9 1017.8 0.0
15/10:00pm 11.7 10.0 7.6 76 2.0 SW 6 9 3 5 1018.0 1017.9 0.0
15/09:30pm 12.9 11.3 8.0 72 2.4 SW 6 7 3 4 1018.0 1017.9 0.0
15/09:00pm 13.7 11.7 8.5 71 2.6 SW 9 9 5 5 1018.1 1018.0 0.0
15/08:30pm 15.5 13.7 9.4 67 3.2 SW 9 13 5 7 1017.8 1017.6 0.0
15/08:00pm 16.3 14.1 9.5 64 3.5 WSW 11 15 6 8 1017.8 1017.6 0.0
15/07:30pm 16.5 14.0 9.7 64 3.6 W 13 19 7 10 1017.8 1017.6 0.0
15/07:00pm 16.3 13.2 9.0 62 3.8 WSW 15 20 8 11 1017.9 1017.8 0.0
15/06:30pm 17.3 14.2 8.7 57 4.4 SW 15 20 8 11 1018.1 1018.0 0.0
15/06:00pm 17.8 14.5 9.7 59 4.3 WSW 17 22 9 12 1018.2 1018.1 0.0
15/05:30pm 18.2 15.0 9.8 58 4.5 WSW 17 24 9 13 1018.5 1018.4 0.0
15/05:00pm 17.3 14.7 10.7 65 3.5 WSW 15 20 8 11 1018.8 1018.7 0.0
15/04:30pm 17.4 13.7 9.6 60 4.1 WSW 19 26 10 14 1019.1 1019.0 0.0
15/04:00pm 18.3 14.7 10.7 61 4.1 WSW 20 24 11 13 1019.2 1019.1 0.0
15/03:30pm 18.1 14.5 10.0 59 4.3 WSW 19 30 10 16 1019.5 1019.4 0.0
15/03:00pm 18.0 14.2 9.1 56 4.6 WSW 19 26 10 14 1019.7 1019.6 0.0
15/02:30pm 17.5 13.9 9.9 61 4.0 W 19 24 10 13 1019.5 1019.4 0.0
15/02:00pm 16.4 13.2 9.8 65 3.5 WSW 17 24 9 13 1019.9 1019.8 0.0
15/01:30pm 16.2 12.5 9.4 64 3.5 WSW 19 28 10 15 1020.1 1020.0 0.0
15/01:00pm 16.4 13.1 9.6 64 3.5 W 17 26 9 14 1020.1 1020.0 0.0
15/12:30pm 16.2 13.2 9.2 63 3.6 W 15 24 8 13 1020.0 1019.9 0.0
15/12:00pm 16.1 12.7 9.3 64 3.5 W 17 24 9 13 1020.1 1020.0 0.0
15/11:30am 15.8 12.6 8.3 61 3.8 W 15 20 8 11 1020.1 1020.0 0.0
15/11:00am 16.1 13.3 8.6 61 3.8 WSW 13 22 7 12 1020.0 1019.9 0.0
15/10:30am 16.0 12.9 8.7 62 3.7 SW 15 24 8 13 1020.0 1019.9 0.0
15/10:00am 15.6 12.4 8.4 62 3.6 W 15 20 8 11 1020.1 1020.0 0.0
15/09:30am 15.6 13.1 8.4 62 3.7 WSW 11 17 6 9 1019.9 1019.8 0.0
15/09:00am 15.2 12.7 8.2 63 3.5 WSW 11 17 6 9 1019.7 1019.6 0.2
15/08:30am 15.0 13.5 9.1 68 3.0 WSW 7 9 4 5 1019.3 1019.2 0.2
15/08:00am 14.6 13.3 10.0 74 2.4 WSW 7 11 4 6 1019.3 1019.2 0.2
15/07:30am 14.1 12.7 9.7 75 2.3 WSW 7 9 4 5 1018.8 1018.7 0.2
15/07:00am 13.6 13.1 9.3 75 2.2 SW 2 9 1 5 1018.4 1018.3 0.2
15/06:30am 13.6 12.6 8.9 73 2.4 SW 4 7 2 4 1018.1 1018.0 0.2
15/06:00am 13.7 12.0 8.5 71 2.6 WSW 7 11 4 6 1018.1 1018.0 0.2
15/05:30am 13.8 12.1 8.2 69 2.8 WSW 7 9 4 5 1017.8 1017.6 0.2
15/05:00am 14.0 11.1 8.2 68 2.9 SW 13 17 7 9 1017.6 1017.4 0.2
15/04:30am 14.0 11.5 8.4 69 2.8 SW 11 15 6 8 1017.4 1017.2 0.2
15/04:00am 14.0 11.3 8.8 71 2.6 SW 13 19 7 10 1017.5 1017.3 0.2
15/03:30am 14.2 12.2 8.8 70 2.7 WSW 9 13 5 7 1017.4 1017.2 0.2
15/03:00am 14.3 12.3 8.5 68 2.9 SW 9 17 5 9 1017.4 1017.2 0.2
15/02:30am 14.2 11.7 8.2 67 3.0 SW 11 15 6 8 1017.4 1017.2 0.2
15/02:00am 14.2 11.3 8.2 67 3.0 SW 13 19 7 10 1017.7 1017.5 0.2
15/01:30am 14.3 11.4 8.3 67 3.0 SW 13 20 7 11 1017.9 1017.8 0.2
15/01:00am 14.4 11.5 8.1 66 3.1 SW 13 22 7 12 1018.1 1018.0 0.2
15/12:30am 14.4 11.1 8.1 66 3.2 SW 15 22 8 12 1018.1 1018.0 0.2
15/12:00am 14.4 11.0 7.7 64 3.3 WSW 15 20 8 11 1018.1 1018.0 0.2
 
Date/Time
EDT
Temp
°C
App
Temp
°C
Dew
Point
°C
Rel
Hum
%
Delta-T
°C
Wind Press
QNH
hPa
Press
MSL
hPa
Rain since
9am
mm
Dir  Spd
km/h
Gust
km/h
Spd
kts
Gust
kts
14/11:30pm 14.5 10.7 7.5 63 3.5 SW 17 22 9 12 1018.0 1017.9 0.2
14/11:00pm 14.5 11.7 8.5 67 3.0 SW 13 20 7 11 1017.8 1017.6 0.2
14/10:30pm 14.3 11.5 8.5 68 2.9 SW 13 24 7 13 1017.9 1017.8 0.2
14/10:00pm 14.5 11.4 8.9 69 2.8 SW 15 22 8 12 1017.7 1017.5 0.2
14/09:30pm 14.7 11.7 9.1 69 2.9 SW 15 22 8 12 1017.3 1017.1 0.2
14/09:00pm 14.9 12.3 9.5 70 2.8 SW 13 20 7 11 1017.1 1016.9 0.2
14/08:30pm 15.1 12.1 9.2 68 3.0 WSW 15 22 8 12 1016.7 1016.5 0.2
14/08:00pm 15.5 11.5 9.2 66 3.2 WSW 20 30 11 16 1016.5 1016.3 0.2

Other Formats:

Comma delimited format used in spreadsheet applications
http://www.bom.gov.au/fwo/IDV60801/IDV60801.94828.axf

JavaScript Object Notation format (JSON) in row-major order
http://www.bom.gov.au/fwo/IDV60801/IDV60801.94828.json